createdAt,value
2017-12-17T01:37:27.875Z,1014.75
2017-12-17T01:37:28.442Z,1014.72
2017-12-17T01:37:29.041Z,1014.72
2017-12-17T01:37:29.640Z,1014.74
2017-12-17T01:37:30.241Z,1014.71
2017-12-17T01:37:30.840Z,1014.77
2017-12-17T01:37:31.479Z,1014.78
2017-12-17T01:37:32.039Z,1014.76
2017-12-17T01:38:25.502Z,1014.79
2017-12-17T01:38:26.093Z,1014.76
2017-12-17T01:38:26.691Z,1014.77
2017-12-17T01:38:27.294Z,1014.78
2017-12-17T01:38:27.892Z,1014.76
2017-12-17T01:38:28.492Z,1014.76
2017-12-17T01:38:29.092Z,1014.78
2017-12-17T01:38:29.692Z,1014.77
2017-12-17T01:39:24.225Z,1014.80
2017-12-17T01:39:24.769Z,1014.78
2017-12-17T01:39:25.369Z,1014.78
2017-12-17T01:39:25.967Z,1014.80
2017-12-17T01:39:26.568Z,1014.83
2017-12-17T01:39:27.167Z,1014.79
2017-12-17T01:39:27.767Z,1014.81
2017-12-17T01:39:28.368Z,1014.82
2017-12-17T01:40:21.825Z,1014.82
2017-12-17T01:40:22.423Z,1014.83
2017-12-17T01:40:23.022Z,1014.82
2017-12-17T01:40:23.624Z,1014.85
2017-12-17T01:40:24.222Z,1014.82
2017-12-17T01:40:24.820Z,1014.81
2017-12-17T01:40:25.426Z,1014.86
2017-12-17T01:40:26.046Z,1014.81
2017-12-17T01:41:19.481Z,1014.82
2017-12-17T01:41:20.075Z,1014.84
2017-12-17T01:41:20.672Z,1014.83
2017-12-17T01:41:21.274Z,1014.81
2017-12-17T01:41:21.873Z,1014.80
2017-12-17T01:41:22.473Z,1014.84
2017-12-17T01:41:23.072Z,1014.78
2017-12-17T01:41:23.675Z,1014.80
2017-12-17T01:42:17.129Z,1014.79
2017-12-17T01:42:17.725Z,1014.78
2017-12-17T01:42:18.326Z,1014.78
2017-12-17T01:42:18.927Z,1014.77
2017-12-17T01:42:19.525Z,1014.80
2017-12-17T01:42:20.126Z,1014.79
2017-12-17T01:42:20.725Z,1014.77
2017-12-17T01:42:21.326Z,1014.77
2017-12-17T01:43:15.805Z,1014.79
2017-12-17T01:43:16.405Z,1014.80
2017-12-17T01:43:17.001Z,1014.79
2017-12-17T01:43:17.601Z,1014.83
2017-12-17T01:43:18.201Z,1014.76
2017-12-17T01:43:18.800Z,1014.81
2017-12-17T01:43:19.400Z,1014.83
2017-12-17T01:43:20.001Z,1014.81
2017-12-17T01:44:14.480Z,1014.79
2017-12-17T01:44:15.080Z,1014.75
2017-12-17T01:44:15.678Z,1014.80
2017-12-17T01:44:16.277Z,1014.78
2017-12-17T01:44:16.877Z,1014.80
2017-12-17T01:44:17.476Z,1014.77
2017-12-17T01:44:18.078Z,1014.81
2017-12-17T01:44:18.691Z,1014.79
2017-12-17T01:45:12.172Z,1014.82
2017-12-17T01:45:12.731Z,1014.81
2017-12-17T01:45:13.330Z,1014.83
2017-12-17T01:45:13.929Z,1014.85
2017-12-17T01:45:14.531Z,1014.84
2017-12-17T01:45:15.132Z,1014.84
2017-12-17T01:45:15.727Z,1014.86
2017-12-17T01:45:16.328Z,1014.82
2017-12-17T01:46:09.786Z,1014.83
2017-12-17T01:46:11.359Z,1014.82
2017-12-17T01:46:11.866Z,1014.82
2017-12-17T01:46:12.467Z,1014.77
2017-12-17T01:46:13.066Z,1014.82
2017-12-17T01:46:13.664Z,1014.83
2017-12-17T01:46:14.265Z,1014.85
2017-12-17T01:47:08.359Z,1014.86
2017-12-17T01:47:08.955Z,1014.82
2017-12-17T01:47:09.557Z,1014.86
2017-12-17T01:47:10.155Z,1014.83
2017-12-17T01:47:10.756Z,1014.80
2017-12-17T01:47:11.367Z,1014.85
2017-12-17T01:47:11.955Z,1014.83
2017-12-17T01:47:12.554Z,1014.86
2017-12-17T01:48:06.035Z,1014.90
2017-12-17T01:48:06.621Z,1014.88
2017-12-17T01:48:07.208Z,1014.91
2017-12-17T01:48:07.807Z,1014.87
2017-12-17T01:48:08.408Z,1014.85
2017-12-17T01:48:09.009Z,1014.88
2017-12-17T01:48:09.606Z,1014.88
2017-12-17T01:48:10.207Z,1014.86
2017-12-17T01:49:04.685Z,1014.90
2017-12-17T01:49:05.282Z,1014.91
2017-12-17T01:49:05.880Z,1014.92
2017-12-17T01:49:06.508Z,1014.89
2017-12-17T01:49:08.734Z,1014.89
2017-12-17T01:49:09.242Z,1014.87
2017-12-17T01:50:04.182Z,1014.96
2017-12-17T01:50:04.778Z,1014.92
2017-12-17T01:50:05.389Z,1014.92
2017-12-17T01:50:05.983Z,1014.89
2017-12-17T01:50:06.587Z,1014.94
2017-12-17T01:50:07.178Z,1014.91
2017-12-17T01:50:07.776Z,1014.92
2017-12-17T01:50:08.377Z,1014.93
2017-12-17T01:51:02.884Z,1014.90
2017-12-17T01:51:03.456Z,1014.88
2017-12-17T01:51:04.053Z,1014.89
2017-12-17T01:51:04.652Z,1014.92
2017-12-17T01:51:05.252Z,1014.93
2017-12-17T01:51:05.851Z,1014.93
2017-12-17T01:51:06.452Z,1014.95
2017-12-17T01:51:07.051Z,1014.93
2017-12-17T01:52:01.532Z,1014.93
2017-12-17T01:52:02.130Z,1014.94
2017-12-17T01:52:02.728Z,1014.89
2017-12-17T01:52:03.328Z,1014.91
2017-12-17T01:52:03.936Z,1014.89
2017-12-17T01:52:04.526Z,1014.92
2017-12-17T01:52:05.128Z,1014.91
2017-12-17T01:52:05.728Z,1014.94
2017-12-17T01:53:00.208Z,1014.95
2017-12-17T01:53:00.805Z,1014.93
2017-12-17T01:53:01.404Z,1014.94
2017-12-17T01:53:02.006Z,1014.94
2017-12-17T01:53:02.605Z,1014.95
2017-12-17T01:53:03.205Z,1014.96
2017-12-17T01:53:03.806Z,1014.95
2017-12-17T01:53:04.408Z,1014.91
2017-12-17T01:53:58.372Z,1014.97
2017-12-17T01:53:58.972Z,1014.95
2017-12-17T01:53:59.574Z,1014.92
2017-12-17T01:54:00.167Z,1014.95
2017-12-17T01:54:00.766Z,1014.94
2017-12-17T01:54:01.368Z,1014.96
2017-12-17T01:54:01.967Z,1014.94
2017-12-17T01:54:55.411Z,1015.00
2017-12-17T01:54:56.006Z,1014.96
2017-12-17T01:54:56.606Z,1014.96
2017-12-17T01:54:57.205Z,1014.98
2017-12-17T01:54:57.807Z,1014.94
2017-12-17T01:54:58.406Z,1014.95
2017-12-17T01:54:59.007Z,1014.98
2017-12-17T01:54:59.604Z,1014.99
2017-12-17T01:55:53.094Z,1014.94
2017-12-17T01:55:53.658Z,1014.94
2017-12-17T01:55:54.256Z,1014.97
2017-12-17T01:55:54.858Z,1014.96
2017-12-17T01:55:55.457Z,1014.95
2017-12-17T01:55:56.057Z,1014.99
2017-12-17T01:55:56.660Z,1015.01
2017-12-17T01:55:57.257Z,1014.96
2017-12-17T01:56:50.712Z,1014.97
2017-12-17T01:56:51.308Z,1014.97
2017-12-17T01:56:51.910Z,1014.96
2017-12-17T01:56:52.509Z,1014.98
2017-12-17T01:56:53.109Z,1014.94
2017-12-17T01:56:53.709Z,1014.92
2017-12-17T01:56:54.310Z,1014.94
2017-12-17T01:56:54.909Z,1014.96
2017-12-17T01:57:48.364Z,1014.94
2017-12-17T01:57:48.962Z,1014.94
2017-12-17T01:57:49.561Z,1014.95
2017-12-17T01:57:50.160Z,1014.96
2017-12-17T01:57:50.759Z,1014.91
2017-12-17T01:57:51.361Z,1014.94
2017-12-17T01:57:51.960Z,1014.96
2017-12-17T01:57:52.558Z,1014.96
2017-12-17T01:58:46.045Z,1014.94
2017-12-17T01:58:46.612Z,1014.96
2017-12-17T01:58:47.212Z,1014.96
2017-12-17T01:58:47.812Z,1014.97
2017-12-17T01:58:48.413Z,1014.95
2017-12-17T01:58:49.013Z,1014.97
2017-12-17T01:58:49.610Z,1014.94
2017-12-17T01:58:50.211Z,1014.95
2017-12-17T01:59:43.669Z,1014.94
2017-12-17T01:59:44.299Z,1014.96
2017-12-17T01:59:44.864Z,1014.96
2017-12-17T01:59:45.464Z,1015.03
2017-12-17T01:59:46.067Z,1014.98
2017-12-17T01:59:46.663Z,1015.00
2017-12-17T01:59:47.262Z,1014.99
2017-12-17T01:59:47.863Z,1014.98
2017-12-17T02:00:41.320Z,1015.03
2017-12-17T02:00:41.917Z,1015.00
2017-12-17T02:00:42.516Z,1014.97
2017-12-17T02:00:43.116Z,1014.98
2017-12-17T02:00:43.718Z,1015.01
2017-12-17T02:00:44.316Z,1015.05
2017-12-17T02:00:44.915Z,1015.01
2017-12-17T02:00:45.515Z,1015.02
2017-12-17T02:01:40.039Z,1015.02
2017-12-17T02:01:40.592Z,1015.02
2017-12-17T02:01:41.191Z,1015.02
2017-12-17T02:01:41.791Z,1015.03
2017-12-17T02:01:42.393Z,1015.02
2017-12-17T02:01:42.992Z,1015.05
2017-12-17T02:01:43.589Z,1015.03
2017-12-17T02:01:44.190Z,1015.01
2017-12-17T02:02:37.646Z,1015.07
2017-12-17T02:02:38.244Z,1015.03
2017-12-17T02:02:38.844Z,1015.06
2017-12-17T02:02:39.443Z,1015.02
2017-12-17T02:02:40.046Z,1015.05
2017-12-17T02:02:40.644Z,1015.04
2017-12-17T02:02:41.242Z,1015.06
2017-12-17T02:02:41.842Z,1015.06
2017-12-17T02:03:35.303Z,1015.09
2017-12-17T02:03:35.896Z,1015.09
2017-12-17T02:03:36.496Z,1015.11
2017-12-17T02:03:37.095Z,1015.09
2017-12-17T02:03:37.695Z,1015.11
2017-12-17T02:03:38.301Z,1015.12
2017-12-17T02:03:38.897Z,1015.06
2017-12-17T02:03:39.495Z,1015.09
2017-12-17T02:04:32.950Z,1015.11
2017-12-17T02:04:33.546Z,1015.09
2017-12-17T02:04:34.146Z,1015.11
2017-12-17T02:04:34.746Z,1015.10
2017-12-17T02:04:35.347Z,1015.13
2017-12-17T02:04:35.946Z,1015.10
2017-12-17T02:04:36.546Z,1015.13
2017-12-17T02:04:37.145Z,1015.10
2017-12-17T02:05:31.630Z,1015.17
2017-12-17T02:05:32.222Z,1015.14
2017-12-17T02:05:32.836Z,1015.14
2017-12-17T02:05:33.421Z,1015.12
2017-12-17T02:05:34.022Z,1015.13
2017-12-17T02:05:34.620Z,1015.13
2017-12-17T02:05:35.221Z,1015.14
2017-12-17T02:05:35.820Z,1015.16
2017-12-17T02:06:30.299Z,1015.21
2017-12-17T02:06:30.901Z,1015.15
2017-12-17T02:06:31.497Z,1015.21
2017-12-17T02:06:32.095Z,1015.16
2017-12-17T02:06:32.698Z,1015.16
2017-12-17T02:06:33.297Z,1015.16
2017-12-17T02:06:33.901Z,1015.19
2017-12-17T02:06:34.493Z,1015.16
2017-12-17T02:07:29.004Z,1015.16
2017-12-17T02:07:29.573Z,1015.18
2017-12-17T02:07:30.172Z,1015.14
2017-12-17T02:07:30.772Z,1015.17
2017-12-17T02:07:31.373Z,1015.14
2017-12-17T02:07:31.973Z,1015.18
2017-12-17T02:07:32.571Z,1015.17
2017-12-17T02:07:33.173Z,1015.16
2017-12-17T02:08:39.326Z,1015.17
2017-12-17T02:08:39.925Z,1015.15
2017-12-17T02:08:40.522Z,1015.18
2017-12-17T02:08:41.123Z,1015.16
2017-12-17T02:08:41.722Z,1015.19
2017-12-17T02:08:42.321Z,1015.20
2017-12-17T02:08:42.922Z,1015.16
2017-12-17T02:08:43.522Z,1015.17
2017-12-17T02:09:36.979Z,1015.20
2017-12-17T02:09:37.575Z,1015.20
2017-12-17T02:09:38.178Z,1015.17
2017-12-17T02:09:38.774Z,1015.16
2017-12-17T02:09:39.377Z,1015.21
2017-12-17T02:09:39.978Z,1015.18
2017-12-17T02:09:40.574Z,1015.21
2017-12-17T02:09:41.173Z,1015.16
2017-12-17T02:10:34.631Z,1015.24
2017-12-17T02:10:35.228Z,1015.19
2017-12-17T02:10:35.835Z,1015.21
2017-12-17T02:10:36.425Z,1015.22
2017-12-17T02:10:37.027Z,1015.18
2017-12-17T02:10:37.629Z,1015.19
2017-12-17T02:10:38.226Z,1015.22
2017-12-17T02:10:38.825Z,1015.20
2017-12-17T02:11:33.305Z,1015.19
2017-12-17T02:11:33.902Z,1015.19
2017-12-17T02:11:34.501Z,1015.18
2017-12-17T02:11:35.102Z,1015.19
2017-12-17T02:11:35.701Z,1015.20
2017-12-17T02:11:36.300Z,1015.15
2017-12-17T02:11:36.901Z,1015.17
2017-12-17T02:11:37.508Z,1015.20
2017-12-17T02:12:30.991Z,1015.19
2017-12-17T02:12:31.553Z,1015.21
2017-12-17T02:12:32.155Z,1015.20
2017-12-17T02:12:32.753Z,1015.21
2017-12-17T02:12:33.353Z,1015.16
2017-12-17T02:12:33.955Z,1015.14
2017-12-17T02:12:34.553Z,1015.16
2017-12-17T02:12:35.153Z,1015.16
2017-12-17T02:13:28.612Z,1015.21
2017-12-17T02:13:29.206Z,1015.19
2017-12-17T02:13:29.806Z,1015.17
2017-12-17T02:13:30.404Z,1015.19
2017-12-17T02:13:31.005Z,1015.21
2017-12-17T02:13:31.608Z,1015.16
2017-12-17T02:13:32.203Z,1015.19
2017-12-17T02:13:32.804Z,1015.20
2017-12-17T02:14:26.347Z,1015.20
2017-12-17T02:14:26.858Z,1015.20
2017-12-17T02:14:27.457Z,1015.21
2017-12-17T02:14:28.057Z,1015.17
2017-12-17T02:14:28.656Z,1015.20
2017-12-17T02:14:29.256Z,1015.19
2017-12-17T02:14:29.855Z,1015.22
2017-12-17T02:14:30.457Z,1015.22
2017-12-17T02:15:24.934Z,1015.18
2017-12-17T02:15:25.531Z,1015.21
2017-12-17T02:15:26.132Z,1015.19
2017-12-17T02:15:26.731Z,1015.16
2017-12-17T02:15:27.329Z,1015.17
2017-12-17T02:15:27.930Z,1015.17
2017-12-17T02:15:28.531Z,1015.16
2017-12-17T02:15:29.130Z,1015.16
2017-12-17T02:16:22.587Z,1015.17
2017-12-17T02:16:23.185Z,1015.16
2017-12-17T02:16:23.784Z,1015.17
2017-12-17T02:16:24.383Z,1015.17
2017-12-17T02:16:24.985Z,1015.18
2017-12-17T02:16:25.585Z,1015.17
2017-12-17T02:16:26.196Z,1015.17
2017-12-17T02:16:26.784Z,1015.17
2017-12-17T02:17:20.241Z,1015.20
2017-12-17T02:17:20.836Z,1015.19
2017-12-17T02:17:21.434Z,1015.17
2017-12-17T02:17:22.036Z,1015.19
2017-12-17T02:17:22.636Z,1015.18
2017-12-17T02:17:23.237Z,1015.16
2017-12-17T02:17:23.835Z,1015.22
2017-12-17T02:17:24.436Z,1015.18
2017-12-17T02:18:17.926Z,1015.22
2017-12-17T02:18:18.487Z,1015.22
2017-12-17T02:18:19.095Z,1015.21
2017-12-17T02:18:19.688Z,1015.20
2017-12-17T02:18:20.287Z,1015.18
2017-12-17T02:18:20.887Z,1015.16
2017-12-17T02:18:21.489Z,1015.22
2017-12-17T02:18:22.086Z,1015.22
2017-12-17T02:19:16.565Z,1015.21
2017-12-17T02:19:17.163Z,1015.23
2017-12-17T02:19:17.762Z,1015.25
2017-12-17T02:19:18.361Z,1015.21
2017-12-17T02:19:18.962Z,1015.21
2017-12-17T02:19:19.562Z,1015.23
2017-12-17T02:19:20.161Z,1015.19
2017-12-17T02:19:20.760Z,1015.17
2017-12-17T02:20:15.244Z,1015.20
2017-12-17T02:20:15.838Z,1015.18
2017-12-17T02:20:16.438Z,1015.19
2017-12-17T02:20:17.041Z,1015.16
2017-12-17T02:20:17.638Z,1015.18
2017-12-17T02:20:18.239Z,1015.22
2017-12-17T02:20:18.838Z,1015.18
2017-12-17T02:20:19.438Z,1015.20
2017-12-17T02:21:13.917Z,1015.21
2017-12-17T02:21:14.513Z,1015.18
2017-12-17T02:21:15.119Z,1015.22
2017-12-17T02:21:15.719Z,1015.21
2017-12-17T02:21:16.315Z,1015.26
2017-12-17T02:21:16.916Z,1015.19
2017-12-17T02:21:17.513Z,1015.18
2017-12-17T02:21:18.111Z,1015.22
2017-12-17T02:22:11.571Z,1015.24
2017-12-17T02:22:12.167Z,1015.21
2017-12-17T02:22:12.766Z,1015.21
2017-12-17T02:22:13.367Z,1015.21
2017-12-17T02:22:13.966Z,1015.21
2017-12-17T02:22:14.565Z,1015.22
2017-12-17T02:22:15.165Z,1015.22
2017-12-17T02:22:15.766Z,1015.23
2017-12-17T02:23:09.220Z,1015.18
2017-12-17T02:23:09.817Z,1015.14
2017-12-17T02:23:10.416Z,1015.19
2017-12-17T02:23:11.022Z,1015.19
2017-12-17T02:23:11.617Z,1015.17
2017-12-17T02:23:12.219Z,1015.12
2017-12-17T02:23:12.816Z,1015.17
2017-12-17T02:23:13.421Z,1015.16
2017-12-17T02:24:06.900Z,1015.20
2017-12-17T02:24:07.469Z,1015.18
2017-12-17T02:24:08.070Z,1015.20
2017-12-17T02:24:08.669Z,1015.20
2017-12-17T02:24:09.269Z,1015.22
2017-12-17T02:24:09.869Z,1015.19
2017-12-17T02:24:10.469Z,1015.16
2017-12-17T02:24:11.068Z,1015.19
2017-12-17T02:25:05.549Z,1015.16
2017-12-17T02:25:06.146Z,1015.17
2017-12-17T02:25:06.742Z,1015.14
2017-12-17T02:25:07.344Z,1015.18
2017-12-17T02:25:07.945Z,1015.17
2017-12-17T02:25:08.545Z,1015.18
2017-12-17T02:25:09.142Z,1015.15
2017-12-17T02:25:09.744Z,1015.19
2017-12-17T02:26:04.224Z,1015.18
2017-12-17T02:26:04.828Z,1015.19
2017-12-17T02:26:05.421Z,1015.21
2017-12-17T02:26:06.020Z,1015.19
2017-12-17T02:26:06.620Z,1015.17
2017-12-17T02:26:07.220Z,1015.22
2017-12-17T02:26:07.820Z,1015.21
2017-12-17T02:26:08.421Z,1015.22
2017-12-17T02:27:01.876Z,1015.24
2017-12-17T02:27:02.473Z,1015.26
2017-12-17T02:27:03.072Z,1015.22
2017-12-17T02:27:03.671Z,1015.21
2017-12-17T02:27:04.270Z,1015.22
2017-12-17T02:27:04.879Z,1015.21
2017-12-17T02:27:05.470Z,1015.26
2017-12-17T02:27:06.072Z,1015.24
2017-12-17T02:28:00.551Z,1015.21
2017-12-17T02:28:01.147Z,1015.20
2017-12-17T02:28:01.746Z,1015.20
2017-12-17T02:28:02.347Z,1015.21
2017-12-17T02:28:02.947Z,1015.15
2017-12-17T02:28:03.550Z,1015.17
2017-12-17T02:28:04.152Z,1015.16
2017-12-17T02:28:04.748Z,1015.18
2017-12-17T02:28:58.236Z,1015.19
2017-12-17T02:28:58.799Z,1015.19
2017-12-17T02:28:59.402Z,1015.15
2017-12-17T02:29:00.000Z,1015.20
2017-12-17T02:29:00.599Z,1015.17
2017-12-17T02:29:01.205Z,1015.16
2017-12-17T02:29:01.797Z,1015.15
2017-12-17T02:29:02.396Z,1015.15
2017-12-17T02:29:56.879Z,1015.18
2017-12-17T02:29:57.474Z,1015.17
2017-12-17T02:29:58.074Z,1015.15
2017-12-17T02:29:58.738Z,1015.15
2017-12-17T02:29:59.274Z,1015.15
2017-12-17T02:29:59.878Z,1015.17
2017-12-17T02:30:00.473Z,1015.16
2017-12-17T02:30:01.073Z,1015.15
2017-12-17T02:30:54.530Z,1015.20
2017-12-17T02:30:55.127Z,1015.15
2017-12-17T02:30:55.727Z,1015.15
2017-12-17T02:30:56.327Z,1015.16
2017-12-17T02:30:56.932Z,1015.18
2017-12-17T02:30:57.529Z,1015.17
2017-12-17T02:30:58.126Z,1015.16
2017-12-17T02:30:58.739Z,1015.18
2017-12-17T02:31:52.181Z,1015.18
2017-12-17T02:31:52.779Z,1015.16
2017-12-17T02:31:53.378Z,1015.16
2017-12-17T02:31:53.979Z,1015.18
2017-12-17T02:31:54.578Z,1015.13
2017-12-17T02:31:55.184Z,1015.15
2017-12-17T02:31:55.778Z,1015.15
2017-12-17T02:31:56.377Z,1015.19
2017-12-17T02:32:49.834Z,1015.12
2017-12-17T02:32:50.429Z,1015.12
2017-12-17T02:32:51.030Z,1015.15
2017-12-17T02:32:51.631Z,1015.12
2017-12-17T02:32:52.230Z,1015.16
2017-12-17T02:32:52.834Z,1015.13
2017-12-17T02:32:53.433Z,1015.13
2017-12-17T02:32:54.029Z,1015.10
2017-12-17T02:33:47.487Z,1015.13
2017-12-17T02:33:48.084Z,1015.14
2017-12-17T02:33:48.681Z,1015.15
2017-12-17T02:33:49.283Z,1015.12
2017-12-17T02:33:49.881Z,1015.12
2017-12-17T02:33:50.483Z,1015.10
2017-12-17T02:33:51.080Z,1015.12
2017-12-17T02:33:51.682Z,1015.12
2017-12-17T02:51:43.021Z,1015.18
2017-12-17T02:51:43.595Z,1015.18
2017-12-17T02:51:44.194Z,1015.21
2017-12-17T02:51:44.795Z,1015.16
2017-12-17T02:51:45.393Z,1015.17
2017-12-17T02:51:45.993Z,1015.15
2017-12-17T02:51:46.591Z,1015.19
2017-12-17T02:51:47.193Z,1015.14
2017-12-17T02:52:40.680Z,1015.24
2017-12-17T02:52:41.247Z,1015.22
2017-12-17T02:52:41.844Z,1015.19
2017-12-17T02:52:42.447Z,1015.18
2017-12-17T02:52:43.044Z,1015.15
2017-12-17T02:52:43.645Z,1015.23
2017-12-17T02:52:44.243Z,1015.20
2017-12-17T02:52:44.844Z,1015.19
2017-12-17T02:53:39.325Z,1015.29
2017-12-17T02:53:39.920Z,1015.27
2017-12-17T02:53:40.521Z,1015.25
2017-12-17T02:53:41.121Z,1015.20
2017-12-17T02:53:41.721Z,1015.23
2017-12-17T02:53:42.320Z,1015.25
2017-12-17T02:53:42.920Z,1015.22
2017-12-17T02:53:43.519Z,1015.21
2017-12-17T02:54:36.979Z,1015.30
2017-12-17T02:54:37.575Z,1015.25
2017-12-17T02:54:38.173Z,1015.25
2017-12-17T02:54:38.773Z,1015.29
2017-12-17T02:54:39.374Z,1015.27
2017-12-17T02:54:39.982Z,1015.26
2017-12-17T02:54:40.574Z,1015.28
2017-12-17T02:54:41.172Z,1015.27
2017-12-17T02:55:35.651Z,1015.26
2017-12-17T02:55:36.252Z,1015.26
2017-12-17T02:55:36.849Z,1015.26
2017-12-17T02:55:37.449Z,1015.26
2017-12-17T02:55:38.049Z,1015.24
2017-12-17T02:55:38.648Z,1015.26
2017-12-17T02:55:39.247Z,1015.24
2017-12-17T02:55:39.846Z,1015.29
2017-12-17T02:56:34.328Z,1015.31
2017-12-17T02:56:34.925Z,1015.34
2017-12-17T02:56:35.524Z,1015.30
2017-12-17T02:56:36.124Z,1015.26
2017-12-17T02:56:36.724Z,1015.31
2017-12-17T02:56:37.330Z,1015.30
2017-12-17T02:56:37.939Z,1015.33
2017-12-17T02:56:38.522Z,1015.27
2017-12-17T02:57:33.037Z,1015.31
2017-12-17T02:57:33.601Z,1015.32
2017-12-17T02:57:34.205Z,1015.29
2017-12-17T02:57:34.801Z,1015.31
2017-12-17T02:57:35.406Z,1015.30
2017-12-17T02:57:36.009Z,1015.30
2017-12-17T02:57:36.600Z,1015.30
2017-12-17T02:57:37.206Z,1015.34
2017-12-17T02:58:30.655Z,1015.33
2017-12-17T02:58:31.255Z,1015.33
2017-12-17T02:58:31.854Z,1015.33
2017-12-17T02:58:32.452Z,1015.35
2017-12-17T02:58:33.052Z,1015.35
2017-12-17T02:58:33.655Z,1015.34
2017-12-17T02:58:34.253Z,1015.33
2017-12-17T02:58:34.851Z,1015.31
2017-12-17T02:59:28.320Z,1015.39
2017-12-17T02:59:28.905Z,1015.40
2017-12-17T02:59:29.503Z,1015.39
2017-12-17T02:59:30.104Z,1015.41
2017-12-17T02:59:30.705Z,1015.40
2017-12-17T02:59:31.306Z,1015.41
2017-12-17T02:59:31.904Z,1015.39
2017-12-17T02:59:32.504Z,1015.39
2017-12-17T03:00:25.960Z,1015.41
2017-12-17T03:00:26.558Z,1015.43
2017-12-17T03:00:27.158Z,1015.40
2017-12-17T03:00:27.756Z,1015.37
2017-12-17T03:00:28.360Z,1015.44
2017-12-17T03:00:28.960Z,1015.45
2017-12-17T03:00:29.557Z,1015.39
2017-12-17T03:00:30.160Z,1015.40
2017-12-17T03:01:24.636Z,1015.44
2017-12-17T03:01:25.234Z,1015.42
2017-12-17T03:01:25.833Z,1015.42
2017-12-17T03:01:26.440Z,1015.42
2017-12-17T03:01:27.031Z,1015.43
2017-12-17T03:01:27.634Z,1015.42
2017-12-17T03:01:28.232Z,1015.45
2017-12-17T03:01:28.831Z,1015.44
2017-12-17T03:02:22.290Z,1015.41
2017-12-17T03:02:22.884Z,1015.42
2017-12-17T03:02:23.484Z,1015.41
2017-12-17T03:02:24.090Z,1015.41
2017-12-17T03:02:24.684Z,1015.43
2017-12-17T03:02:25.288Z,1015.46
2017-12-17T03:02:25.882Z,1015.47
2017-12-17T03:02:26.486Z,1015.41
2017-12-17T03:03:20.990Z,1015.46
2017-12-17T03:03:21.559Z,1015.48
2017-12-17T03:03:22.163Z,1015.47
2017-12-17T03:03:22.760Z,1015.50
2017-12-17T03:03:23.359Z,1015.48
2017-12-17T03:03:23.959Z,1015.49
2017-12-17T03:03:24.561Z,1015.46
2017-12-17T03:03:25.159Z,1015.50
2017-12-17T03:04:19.640Z,1015.48
2017-12-17T03:04:20.237Z,1015.49
2017-12-17T03:04:20.835Z,1015.45
2017-12-17T03:04:21.435Z,1015.45
2017-12-17T03:04:22.035Z,1015.47
2017-12-17T03:04:22.637Z,1015.42
2017-12-17T03:04:23.234Z,1015.42
2017-12-17T03:04:23.845Z,1015.47
2017-12-17T03:05:18.318Z,1015.44
2017-12-17T03:05:18.912Z,1015.41
2017-12-17T03:05:19.514Z,1015.46
2017-12-17T03:05:20.127Z,1015.43
2017-12-17T03:05:20.712Z,1015.43
2017-12-17T03:05:21.316Z,1015.42
2017-12-17T03:05:21.909Z,1015.45
2017-12-17T03:05:22.510Z,1015.41
2017-12-17T03:06:17.506Z,1015.45
2017-12-17T03:06:18.099Z,1015.45
2017-12-17T03:06:18.699Z,1015.46
2017-12-17T03:06:19.298Z,1015.43
2017-12-17T03:06:19.899Z,1015.43
2017-12-17T03:06:20.505Z,1015.47
2017-12-17T03:06:21.104Z,1015.43
2017-12-17T03:07:14.540Z,1015.45
2017-12-17T03:07:15.136Z,1015.43
2017-12-17T03:07:15.736Z,1015.44
2017-12-17T03:07:16.336Z,1015.42
2017-12-17T03:07:16.936Z,1015.43
2017-12-17T03:07:17.540Z,1015.43
2017-12-17T03:07:18.145Z,1015.43
2017-12-17T03:07:18.735Z,1015.43
2017-12-17T03:08:12.228Z,1015.44
2017-12-17T03:08:12.789Z,1015.40
2017-12-17T03:08:13.389Z,1015.43
2017-12-17T03:08:13.988Z,1015.43
2017-12-17T03:08:14.588Z,1015.44
2017-12-17T03:08:15.188Z,1015.45
2017-12-17T03:08:15.788Z,1015.45
2017-12-17T03:08:16.388Z,1015.43
2017-12-17T03:09:10.867Z,1015.46
2017-12-17T03:09:11.466Z,1015.46
2017-12-17T03:09:12.062Z,1015.44
2017-12-17T03:09:12.662Z,1015.45
2017-12-17T03:09:13.265Z,1015.44
2017-12-17T03:09:13.865Z,1015.48
2017-12-17T03:09:14.463Z,1015.44
2017-12-17T03:09:15.063Z,1015.47
2017-12-17T03:10:09.543Z,1015.51
2017-12-17T03:10:10.139Z,1015.54
2017-12-17T03:10:10.738Z,1015.51
2017-12-17T03:10:11.353Z,1015.52
2017-12-17T03:10:11.939Z,1015.54
2017-12-17T03:10:12.538Z,1015.50
2017-12-17T03:10:13.145Z,1015.47
2017-12-17T03:10:13.737Z,1015.48
2017-12-17T03:11:07.195Z,1015.57
2017-12-17T03:11:07.792Z,1015.48
2017-12-17T03:11:08.391Z,1015.51
2017-12-17T03:11:08.990Z,1015.52
2017-12-17T03:11:09.591Z,1015.51
2017-12-17T03:11:10.192Z,1015.50
2017-12-17T03:11:10.792Z,1015.53
2017-12-17T03:11:11.390Z,1015.53
2017-12-17T03:12:04.848Z,1015.51
2017-12-17T03:12:05.445Z,1015.53
2017-12-17T03:12:06.042Z,1015.52
2017-12-17T03:12:06.652Z,1015.57
2017-12-17T03:12:07.246Z,1015.51
2017-12-17T03:12:07.843Z,1015.53
2017-12-17T03:12:08.448Z,1015.54
2017-12-17T03:12:09.041Z,1015.50
2017-12-17T03:13:02.500Z,1015.57
2017-12-17T03:13:03.099Z,1015.54
2017-12-17T03:13:03.699Z,1015.56
2017-12-17T03:13:04.316Z,1015.54
2017-12-17T03:13:04.897Z,1015.52
2017-12-17T03:13:05.497Z,1015.57
2017-12-17T03:13:06.097Z,1015.55
2017-12-17T03:13:06.698Z,1015.51
2017-12-17T03:14:00.183Z,1015.54
2017-12-17T03:14:00.748Z,1015.58
2017-12-17T03:14:01.346Z,1015.55
2017-12-17T03:14:01.947Z,1015.57
2017-12-17T03:14:02.545Z,1015.57
2017-12-17T03:14:03.145Z,1015.56
2017-12-17T03:14:03.746Z,1015.52
2017-12-17T03:14:04.347Z,1015.53
2017-12-17T03:14:58.827Z,1015.58
2017-12-17T03:14:59.422Z,1015.59
2017-12-17T03:15:00.021Z,1015.56
2017-12-17T03:15:00.622Z,1015.53
2017-12-17T03:15:01.222Z,1015.59
2017-12-17T03:15:01.822Z,1015.58
2017-12-17T03:15:02.421Z,1015.58
2017-12-17T03:15:03.020Z,1015.56
2017-12-17T03:15:57.500Z,1015.61
2017-12-17T03:15:58.107Z,1015.59
2017-12-17T03:15:58.698Z,1015.57
2017-12-17T03:15:59.298Z,1015.60
2017-12-17T03:15:59.897Z,1015.57
2017-12-17T03:16:00.499Z,1015.58
2017-12-17T03:16:01.099Z,1015.62
2017-12-17T03:16:01.697Z,1015.61
2017-12-17T03:16:56.180Z,1015.65
2017-12-17T03:16:56.774Z,1015.62
2017-12-17T03:16:57.372Z,1015.63
2017-12-17T03:16:57.975Z,1015.63
2017-12-17T03:16:58.574Z,1015.60
2017-12-17T03:16:59.174Z,1015.62
2017-12-17T03:16:59.773Z,1015.62
2017-12-17T03:17:00.374Z,1015.60
2017-12-17T03:17:54.852Z,1015.63
2017-12-17T03:17:55.448Z,1015.64
2017-12-17T03:17:56.051Z,1015.66
2017-12-17T03:17:56.649Z,1015.63
2017-12-17T03:17:57.248Z,1015.62
2017-12-17T03:17:57.850Z,1015.61
2017-12-17T03:17:58.451Z,1015.59
2017-12-17T03:17:59.047Z,1015.64
2017-12-17T03:18:52.521Z,1015.65
2017-12-17T03:18:53.100Z,1015.63
2017-12-17T03:18:53.700Z,1015.65
2017-12-17T03:18:54.302Z,1015.64
2017-12-17T03:18:54.900Z,1015.61
2017-12-17T03:18:55.502Z,1015.64
2017-12-17T03:18:56.102Z,1015.61
2017-12-17T03:18:56.699Z,1015.65
2017-12-17T03:19:50.194Z,1015.63
2017-12-17T03:19:50.755Z,1015.63
2017-12-17T03:19:51.353Z,1015.59
2017-12-17T03:19:51.953Z,1015.60
2017-12-17T03:19:52.556Z,1015.58
2017-12-17T03:19:53.153Z,1015.62
2017-12-17T03:19:53.751Z,1015.61
2017-12-17T03:19:54.364Z,1015.62
2017-12-17T03:20:47.808Z,1015.69
2017-12-17T03:20:48.461Z,1015.68
2017-12-17T03:20:49.003Z,1015.69
2017-12-17T03:20:49.603Z,1015.69
2017-12-17T03:20:50.204Z,1015.68
2017-12-17T03:20:50.804Z,1015.67
2017-12-17T03:20:51.404Z,1015.64
2017-12-17T03:20:52.003Z,1015.67
2017-12-17T03:21:46.486Z,1015.67
2017-12-17T03:21:47.079Z,1015.68
2017-12-17T03:21:47.681Z,1015.70
2017-12-17T03:21:48.279Z,1015.67
2017-12-17T03:21:48.879Z,1015.71
2017-12-17T03:21:49.482Z,1015.67
2017-12-17T03:21:50.083Z,1015.69
2017-12-17T03:21:50.678Z,1015.65
2017-12-17T03:22:45.160Z,1015.68
2017-12-17T03:22:45.755Z,1015.68
2017-12-17T03:22:46.354Z,1015.69